sensor_id;sensor_type;location;lat;lon;timestamp;pressure;altitude;pressure_sealevel;temperature;humidity
20228;BME280;12195;55.790;37.572;2023-02-08T00:01:26;102345.86;;;-3.68;60.79
20228;BME280;12195;55.790;37.572;2023-02-08T00:03:58;102348.20;;;-3.73;60.71
20228;BME280;12195;55.790;37.572;2023-02-08T00:06:31;102350.77;;;-3.73;61.05
20228;BME280;12195;55.790;37.572;2023-02-08T00:09:03;102347.86;;;-3.61;60.72
20228;BME280;12195;55.790;37.572;2023-02-08T00:11:37;102355.64;;;-3.79;60.96
20228;BME280;12195;55.790;37.572;2023-02-08T00:14:09;102356.58;;;-3.77;60.92
20228;BME280;12195;55.790;37.572;2023-02-08T00:16:41;102351.66;;;-3.72;60.91
20228;BME280;12195;55.790;37.572;2023-02-08T00:19:13;102350.36;;;-3.82;61.14
20228;BME280;12195;55.790;37.572;2023-02-08T00:21:46;102350.55;;;-3.77;60.87
20228;BME280;12195;55.790;37.572;2023-02-08T00:24:18;102337.48;;;-3.64;60.65
20228;BME280;12195;55.790;37.572;2023-02-08T00:26:50;102338.61;;;-3.77;60.67
20228;BME280;12195;55.790;37.572;2023-02-08T00:29:22;102334.16;;;-3.81;60.64
20228;BME280;12195;55.790;37.572;2023-02-08T00:31:54;102330.77;;;-3.80;60.43
20228;BME280;12195;55.790;37.572;2023-02-08T00:34:26;102333.89;;;-3.87;60.44
20228;BME280;12195;55.790;37.572;2023-02-08T00:36:58;102333.45;;;-3.96;60.80
20228;BME280;12195;55.790;37.572;2023-02-08T00:39:30;102330.77;;;-3.99;60.83
20228;BME280;12195;55.790;37.572;2023-02-08T00:42:02;102336.31;;;-3.90;60.76
20228;BME280;12195;55.790;37.572;2023-02-08T00:44:34;102348.80;;;-3.97;60.96
20228;BME280;12195;55.790;37.572;2023-02-08T00:47:06;102339.20;;;-4.01;60.87
20228;BME280;12195;55.790;37.572;2023-02-08T00:49:38;102334.74;;;-4.05;61.28
20228;BME280;12195;55.790;37.572;2023-02-08T00:52:10;102338.31;;;-4.02;61.43
20228;BME280;12195;55.790;37.572;2023-02-08T00:54:43;102340.95;;;-4.00;61.66
20228;BME280;12195;55.790;37.572;2023-02-08T00:57:15;102339.98;;;-4.02;61.82
20228;BME280;12195;55.790;37.572;2023-02-08T00:59:47;102332.41;;;-3.82;61.54
20228;BME280;12195;55.790;37.572;2023-02-08T01:02:19;102334.48;;;-3.92;61.16
20228;BME280;12195;55.790;37.572;2023-02-08T01:04:53;102338.73;;;-3.93;61.22
20228;BME280;12195;55.790;37.572;2023-02-08T01:07:25;102335.34;;;-3.92;61.33
20228;BME280;12195;55.790;37.572;2023-02-08T01:09:57;102332.66;;;-3.76;60.75
20228;BME280;12195;55.790;37.572;2023-02-08T01:12:31;102328.95;;;-3.82;60.36
20228;BME280;12195;55.790;37.572;2023-02-08T01:15:03;102331.25;;;-3.88;60.47
20228;BME280;12195;55.790;37.572;2023-02-08T01:17:36;102341.29;;;-3.93;60.71
20228;BME280;12195;55.790;37.572;2023-02-08T01:20:08;102339.02;;;-3.87;60.79
20228;BME280;12195;55.790;37.572;2023-02-08T01:22:40;102334.11;;;-4.00;61.11
20228;BME280;12195;55.790;37.572;2023-02-08T01:25:13;102327.31;;;-3.99;61.16
20228;BME280;12195;55.790;37.572;2023-02-08T01:27:45;102331.70;;;-3.97;60.97
20228;BME280;12195;55.790;37.572;2023-02-08T01:30:17;102335.91;;;-3.99;61.04
20228;BME280;12195;55.790;37.572;2023-02-08T01:32:50;102330.63;;;-4.02;61.37
20228;BME280;12195;55.790;37.572;2023-02-08T01:35:23;102324.23;;;-3.92;61.30
20228;BME280;12195;55.790;37.572;2023-02-08T01:37:55;102329.73;;;-4.02;61.57
20228;BME280;12195;55.790;37.572;2023-02-08T01:40:28;102334.00;;;-4.03;61.75
20228;BME280;12195;55.790;37.572;2023-02-08T01:43:00;102333.33;;;-3.99;61.66
20228;BME280;12195;55.790;37.572;2023-02-08T01:45:32;102330.88;;;-3.96;61.89
20228;BME280;12195;55.790;37.572;2023-02-08T01:48:14;102344.75;;;-3.92;61.68
20228;BME280;12195;55.790;37.572;2023-02-08T01:50:58;102344.82;;;-3.91;61.58
20228;BME280;12195;55.790;37.572;2023-02-08T01:53:33;102338.87;;;-3.90;61.70
20228;BME280;12195;55.790;37.572;2023-02-08T01:56:09;102332.78;;;-3.92;61.65
20228;BME280;12195;55.790;37.572;2023-02-08T01:58:43;102323.62;;;-3.87;61.73
20228;BME280;12195;55.790;37.572;2023-02-08T02:01:16;102325.56;;;-3.81;61.70
20228;BME280;12195;55.790;37.572;2023-02-08T02:03:49;102324.89;;;-3.77;61.73
20228;BME280;12195;55.790;37.572;2023-02-08T02:06:23;102330.84;;;-3.78;61.15
20228;BME280;12195;55.790;37.572;2023-02-08T02:09:04;102320.98;;;-3.69;61.44
20228;BME280;12195;55.790;37.572;2023-02-08T02:11:34;102321.94;;;-3.67;61.14
20228;BME280;12195;55.790;37.572;2023-02-08T02:14:07;102326.07;;;-3.71;60.35
20228;BME280;12195;55.790;37.572;2023-02-08T02:16:42;102321.32;;;-3.81;60.76
20228;BME280;12195;55.790;37.572;2023-02-08T02:22:10;102308.98;;;-3.89;61.06
20228;BME280;12195;55.790;37.572;2023-02-08T02:25:05;102315.78;;;-3.90;61.41
20228;BME280;12195;55.790;37.572;2023-02-08T02:27:37;102320.24;;;-3.86;61.52
20228;BME280;12195;55.790;37.572;2023-02-08T02:30:20;102314.17;;;-3.69;61.21
20228;BME280;12195;55.790;37.572;2023-02-08T02:35:43;102319.90;;;-3.74;60.57
20228;BME280;12195;55.790;37.572;2023-02-08T02:43:56;102321.06;;;-3.87;60.80
20228;BME280;12195;55.790;37.572;2023-02-08T02:46:45;102321.32;;;-3.81;60.41
20228;BME280;12195;55.790;37.572;2023-02-08T02:49:23;102324.03;;;-3.78;59.81
20228;BME280;12195;55.790;37.572;2023-02-08T02:54:41;102323.74;;;-3.84;60.03
20228;BME280;12195;55.790;37.572;2023-02-08T02:57:15;102311.33;;;-3.94;60.11
20228;BME280;12195;55.790;37.572;2023-02-08T02:59:48;102322.59;;;-3.90;60.17
20228;BME280;12195;55.790;37.572;2023-02-08T03:02:21;102321.73;;;-3.91;60.44
20228;BME280;12195;55.790;37.572;2023-02-08T03:04:55;102316.16;;;-4.00;60.81
20228;BME280;12195;55.790;37.572;2023-02-08T03:07:50;102315.30;;;-4.00;61.00
20228;BME280;12195;55.790;37.572;2023-02-08T03:16:17;102301.20;;;-3.91;61.48
20228;BME280;12195;55.790;37.572;2023-02-08T03:24:36;102297.08;;;-3.87;61.43
20228;BME280;12195;55.790;37.572;2023-02-08T03:27:09;102287.70;;;-3.87;61.38
20228;BME280;12195;55.790;37.572;2023-02-08T03:32:53;102283.72;;;-3.80;61.56
20228;BME280;12195;55.790;37.572;2023-02-08T03:35:33;102274.31;;;-3.80;61.54
20228;BME280;12195;55.790;37.572;2023-02-08T03:38:16;102279.59;;;-3.77;61.54
20228;BME280;12195;55.790;37.572;2023-02-08T03:40:42;102271.89;;;-3.77;61.46
20228;BME280;12195;55.790;37.572;2023-02-08T03:43:26;102260.02;;;-3.75;61.71
20228;BME280;12195;55.790;37.572;2023-02-08T03:46:05;102265.19;;;-3.73;61.75
20228;BME280;12195;55.790;37.572;2023-02-08T03:48:34;102259.45;;;-3.68;61.71
20228;BME280;12195;55.790;37.572;2023-02-08T03:51:08;102274.10;;;-3.65;61.66
20228;BME280;12195;55.790;37.572;2023-02-08T03:53:43;102264.86;;;-3.62;61.08
20228;BME280;12195;55.790;37.572;2023-02-08T03:56:19;102262.47;;;-3.57;60.98
20228;BME280;12195;55.790;37.572;2023-02-08T03:58:57;102260.59;;;-3.61;61.09
20228;BME280;12195;55.790;37.572;2023-02-08T04:01:37;102264.86;;;-3.62;61.33
20228;BME280;12195;55.790;37.572;2023-02-08T04:04:06;102257.34;;;-3.57;61.16
20228;BME280;12195;55.790;37.572;2023-02-08T04:06:38;102246.08;;;-3.61;61.78
20228;BME280;12195;55.790;37.572;2023-02-08T04:09:11;102247.75;;;-3.61;62.09
20228;BME280;12195;55.790;37.572;2023-02-08T04:11:44;102242.97;;;-3.54;61.79
20228;BME280;12195;55.790;37.572;2023-02-08T04:14:17;102249.98;;;-3.50;62.10
20228;BME280;12195;55.790;37.572;2023-02-08T04:16:50;102244.95;;;-3.47;62.02
20228;BME280;12195;55.790;37.572;2023-02-08T04:19:22;102243.42;;;-3.43;61.91
20228;BME280;12195;55.790;37.572;2023-02-08T04:21:55;102247.87;;;-3.39;61.88
20228;BME280;12195;55.790;37.572;2023-02-08T04:24:27;102241.02;;;-3.39;62.02
20228;BME280;12195;55.790;37.572;2023-02-08T04:27:00;102242.05;;;-3.35;61.97
20228;BME280;12195;55.790;37.572;2023-02-08T04:29:34;102247.25;;;-3.34;61.99
20228;BME280;12195;55.790;37.572;2023-02-08T04:32:06;102237.66;;;-3.17;61.42
20228;BME280;12195;55.790;37.572;2023-02-08T04:34:43;102244.92;;;-3.28;61.78
20228;BME280;12195;55.790;37.572;2023-02-08T04:37:15;102234.41;;;-3.34;61.94
20228;BME280;12195;55.790;37.572;2023-02-08T04:39:48;102239.72;;;-3.29;61.81
20228;BME280;12195;55.790;37.572;2023-02-08T04:42:22;102237.97;;;-3.30;62.15
20228;BME280;12195;55.790;37.572;2023-02-08T04:44:54;102233.83;;;-3.27;62.31
20228;BME280;12195;55.790;37.572;2023-02-08T04:47:26;102233.89;;;-3.25;62.00
20228;BME280;12195;55.790;37.572;2023-02-08T04:49:59;102229.64;;;-3.25;61.90
20228;BME280;12195;55.790;37.572;2023-02-08T04:52:33;102229.78;;;-3.22;61.95
20228;BME280;12195;55.790;37.572;2023-02-08T04:55:06;102237.36;;;-3.25;62.02
20228;BME280;12195;55.790;37.572;2023-02-08T04:57:39;102233.04;;;-3.26;62.24
20228;BME280;12195;55.790;37.572;2023-02-08T05:00:13;102231.39;;;-3.24;62.40
20228;BME280;12195;55.790;37.572;2023-02-08T05:02:45;102224.68;;;-3.20;62.31
20228;BME280;12195;55.790;37.572;2023-02-08T05:05:18;102227.31;;;-3.19;62.27
20228;BME280;12195;55.790;37.572;2023-02-08T05:07:51;102232.52;;;-3.17;62.48
20228;BME280;12195;55.790;37.572;2023-02-08T05:10:24;102236.83;;;-3.16;62.68
20228;BME280;12195;55.790;37.572;2023-02-08T05:12:56;102226.63;;;-3.15;62.57
20228;BME280;12195;55.790;37.572;2023-02-08T05:15:30;102226.95;;;-3.07;62.36
20228;BME280;12195;55.790;37.572;2023-02-08T05:18:03;102229.52;;;-3.07;62.54
20228;BME280;12195;55.790;37.572;2023-02-08T05:20:37;102226.30;;;-3.02;62.13
20228;BME280;12195;55.790;37.572;2023-02-08T05:23:11;102220.10;;;-3.07;62.41
20228;BME280;12195;55.790;37.572;2023-02-08T05:25:43;102218.42;;;-3.06;62.70
20228;BME280;12195;55.790;37.572;2023-02-08T05:28:16;102215.86;;;-3.06;63.20
20228;BME280;12195;55.790;37.572;2023-02-08T05:30:49;102214.41;;;-3.00;62.66
20228;BME280;12195;55.790;37.572;2023-02-08T05:33:22;102217.14;;;-2.95;62.70
20228;BME280;12195;55.790;37.572;2023-02-08T05:35:54;102217.20;;;-2.94;63.01
20228;BME280;12195;55.790;37.572;2023-02-08T05:38:27;102217.39;;;-2.89;63.25
20228;BME280;12195;55.790;37.572;2023-02-08T05:41:00;102212.48;;;-2.83;63.12
20228;BME280;12195;55.790;37.572;2023-02-08T05:43:34;102211.78;;;-2.79;63.00
20228;BME280;12195;55.790;37.572;2023-02-08T05:46:06;102217.05;;;-2.76;62.85
20228;BME280;12195;55.790;37.572;2023-02-08T05:48:38;102225.18;;;-2.66;62.81
20228;BME280;12195;55.790;37.572;2023-02-08T05:51:12;102216.48;;;-2.69;62.62
20228;BME280;12195;55.790;37.572;2023-02-08T05:53:45;102211.28;;;-2.71;62.78
20228;BME280;12195;55.790;37.572;2023-02-08T05:56:17;102214.77;;;-2.69;63.11
20228;BME280;12195;55.790;37.572;2023-02-08T05:58:50;102218.36;;;-2.65;62.98
20228;BME280;12195;55.790;37.572;2023-02-08T06:01:23;102225.37;;;-2.61;62.67
20228;BME280;12195;55.790;37.572;2023-02-08T06:03:58;102210.09;;;-2.57;62.63
20228;BME280;12195;55.790;37.572;2023-02-08T06:06:30;102211.05;;;-2.55;62.65
20228;BME280;12195;55.790;37.572;2023-02-08T06:09:03;102206.76;;;-2.54;62.24
20228;BME280;12195;55.790;37.572;2023-02-08T06:11:36;102200.89;;;-2.52;62.25
20228;BME280;12195;55.790;37.572;2023-02-08T06:14:08;102199.94;;;-2.54;62.35
20228;BME280;12195;55.790;37.572;2023-02-08T06:16:41;102205.14;;;-2.52;62.46
20228;BME280;12195;55.790;37.572;2023-02-08T06:19:14;102202.70;;;-2.49;62.26
20228;BME280;12195;55.790;37.572;2023-02-08T06:21:46;102209.64;;;-2.47;62.39
20228;BME280;12195;55.790;37.572;2023-02-08T06:24:19;102207.13;;;-2.45;62.32
20228;BME280;12195;55.790;37.572;2023-02-08T06:26:52;102206.49;;;-2.40;62.30
20228;BME280;12195;55.790;37.572;2023-02-08T06:29:24;102203.03;;;-2.40;61.97
20228;BME280;12195;55.790;37.572;2023-02-08T06:31:59;102199.75;;;-2.36;61.87
20228;BME280;12195;55.790;37.572;2023-02-08T06:34:31;102190.44;;;-2.33;62.28
20228;BME280;12195;55.790;37.572;2023-02-08T06:37:04;102192.37;;;-2.27;61.82
20228;BME280;12195;55.790;37.572;2023-02-08T06:39:36;102194.36;;;-2.20;61.74
20228;BME280;12195;55.790;37.572;2023-02-08T06:42:08;102192.75;;;-2.17;61.75
20228;BME280;12195;55.790;37.572;2023-02-08T06:44:41;102180.87;;;-2.13;61.43
20228;BME280;12195;55.790;37.572;2023-02-08T06:47:16;102182.96;;;-2.03;61.10
20228;BME280;12195;55.790;37.572;2023-02-08T06:49:49;102179.42;;;-2.07;61.16
20228;BME280;12195;55.790;37.572;2023-02-08T06:52:22;102177.88;;;-2.02;61.50
20228;BME280;12195;55.790;37.572;2023-02-08T06:54:54;102180.59;;;-1.97;60.99
20228;BME280;12195;55.790;37.572;2023-02-08T06:57:28;102173.88;;;-1.94;60.80
20228;BME280;12195;55.790;37.572;2023-02-08T07:00:01;102169.70;;;-1.90;61.06
20228;BME280;12195;55.790;37.572;2023-02-08T07:02:34;102170.84;;;-1.82;60.76
20228;BME280;12195;55.790;37.572;2023-02-08T07:05:07;102169.23;;;-1.79;60.96
20228;BME280;12195;55.790;37.572;2023-02-08T07:07:40;102162.65;;;-1.71;60.90
20228;BME280;12195;55.790;37.572;2023-02-08T07:10:14;102160.35;;;-1.63;60.67
20228;BME280;12195;55.790;37.572;2023-02-08T07:12:46;102169.21;;;-1.55;60.73
20228;BME280;12195;55.790;37.572;2023-02-08T07:15:18;102160.06;;;-1.46;60.30
20228;BME280;12195;55.790;37.572;2023-02-08T07:17:51;102158.53;;;-1.41;60.01
20228;BME280;12195;55.790;37.572;2023-02-08T07:20:24;102157.87;;;-1.35;59.98
20228;BME280;12195;55.790;37.572;2023-02-08T07:22:56;102153.78;;;-1.29;59.60
20228;BME280;12195;55.790;37.572;2023-02-08T07:25:32;102157.38;;;-1.24;59.58
20228;BME280;12195;55.790;37.572;2023-02-08T07:28:04;102165.16;;;-1.22;59.15
20228;BME280;12195;55.790;37.572;2023-02-08T07:30:40;102172.00;;;-1.23;59.10
20228;BME280;12195;55.790;37.572;2023-02-08T07:33:13;102168.59;;;-1.22;59.04
20228;BME280;12195;55.790;37.572;2023-02-08T07:35:46;102168.98;;;-1.10;58.22
20228;BME280;12195;55.790;37.572;2023-02-08T07:38:20;102165.94;;;-1.25;58.62
20228;BME280;12195;55.790;37.572;2023-02-08T07:41:04;102162.31;;;-1.30;58.29
20228;BME280;12195;55.790;37.572;2023-02-08T07:43:39;102155.31;;;-1.34;58.32
20228;BME280;12195;55.790;37.572;2023-02-08T07:46:16;102156.73;;;-1.43;58.56
20228;BME280;12195;55.790;37.572;2023-02-08T07:48:48;102150.46;;;-1.51;58.78
20228;BME280;12195;55.790;37.572;2023-02-08T07:51:21;102146.03;;;-1.55;58.91
20228;BME280;12195;55.790;37.572;2023-02-08T07:53:54;102152.09;;;-1.53;58.89
20228;BME280;12195;55.790;37.572;2023-02-08T07:56:26;102148.55;;;-1.57;59.50
20228;BME280;12195;55.790;37.572;2023-02-08T07:58:58;102158.08;;;-1.54;59.58
20228;BME280;12195;55.790;37.572;2023-02-08T08:01:32;102154.83;;;-1.49;59.66
20228;BME280;12195;55.790;37.572;2023-02-08T08:04:06;102144.82;;;-1.40;59.54
20228;BME280;12195;55.790;37.572;2023-02-08T08:06:38;102148.52;;;-1.32;59.16
20228;BME280;12195;55.790;37.572;2023-02-08T08:09:11;102145.22;;;-1.28;59.00
20228;BME280;12195;55.790;37.572;2023-02-08T08:11:47;102149.70;;;-1.22;58.85
20228;BME280;12195;55.790;37.572;2023-02-08T08:14:20;102147.06;;;-1.24;58.75
20228;BME280;12195;55.790;37.572;2023-02-08T08:16:52;102147.02;;;-1.25;59.00
20228;BME280;12195;55.790;37.572;2023-02-08T08:19:25;102140.17;;;-1.25;59.05
20228;BME280;12195;55.790;37.572;2023-02-08T08:21:58;102136.76;;;-1.24;58.97
20228;BME280;12195;55.790;37.572;2023-02-08T08:24:30;102134.29;;;-1.21;59.38
20228;BME280;12195;55.790;37.572;2023-02-08T08:27:05;102129.26;;;-1.16;58.86
20228;BME280;12195;55.790;37.572;2023-02-08T08:29:38;102125.11;;;-1.11;58.79
20228;BME280;12195;55.790;37.572;2023-02-08T08:32:10;102123.91;;;-0.96;58.68
20228;BME280;12195;55.790;37.572;2023-02-08T08:34:43;102110.64;;;-1.08;58.42
20228;BME280;12195;55.790;37.572;2023-02-08T08:37:16;102115.69;;;-1.11;58.31
20228;BME280;12195;55.790;37.572;2023-02-08T08:39:49;102116.53;;;-1.12;58.51
20228;BME280;12195;55.790;37.572;2023-02-08T08:42:22;102120.74;;;-1.14;58.69
20228;BME280;12195;55.790;37.572;2023-02-08T08:44:56;102117.20;;;-1.17;58.93
20228;BME280;12195;55.790;37.572;2023-02-08T08:47:30;102108.69;;;-1.15;59.31
20228;BME280;12195;55.790;37.572;2023-02-08T08:50:03;102105.70;;;-1.00;58.73
20228;BME280;12195;55.790;37.572;2023-02-08T08:52:35;102104.97;;;-0.96;59.35
20228;BME280;12195;55.790;37.572;2023-02-08T08:55:09;102101.13;;;-0.81;59.24
20228;BME280;12195;55.790;37.572;2023-02-08T08:57:41;102095.20;;;-0.49;59.05
20228;BME280;12195;55.790;37.572;2023-02-08T09:00:15;102080.09;;;-0.35;57.75
20228;BME280;12195;55.790;37.572;2023-02-08T09:02:49;102087.37;;;-0.21;57.38
20228;BME280;12195;55.790;37.572;2023-02-08T09:05:22;102075.64;;;-0.10;56.69
20228;BME280;12195;55.790;37.572;2023-02-08T09:07:54;102074.13;;;-0.02;57.19
20228;BME280;12195;55.790;37.572;2023-02-08T09:10:27;102070.17;;;0.13;56.61
20228;BME280;12195;55.790;37.572;2023-02-08T09:12:59;102065.14;;;0.17;56.42
20228;BME280;12195;55.790;37.572;2023-02-08T09:15:32;102066.97;;;0.21;56.22
20228;BME280;12195;55.790;37.572;2023-02-08T09:18:05;102067.02;;;0.24;55.71
20228;BME280;12195;55.790;37.572;2023-02-08T09:20:38;102065.27;;;0.23;56.24
20228;BME280;12195;55.790;37.572;2023-02-08T09:23:11;102057.53;;;0.23;56.05
20228;BME280;12195;55.790;37.572;2023-02-08T09:25:45;102058.33;;;0.21;56.06
20228;BME280;12195;55.790;37.572;2023-02-08T09:28:20;102060.83;;;0.18;56.17
20228;BME280;12195;55.790;37.572;2023-02-08T09:30:53;102067.64;;;0.14;56.24
20228;BME280;12195;55.790;37.572;2023-02-08T09:33:26;102067.55;;;0.11;56.69
20228;BME280;12195;55.790;37.572;2023-02-08T09:35:59;102069.20;;;0.08;56.99
20228;BME280;12195;55.790;37.572;2023-02-08T09:38:33;102062.30;;;0.08;57.16
20228;BME280;12195;55.790;37.572;2023-02-08T09:41:29;102060.47;;;0.03;57.17
20228;BME280;12195;55.790;37.572;2023-02-08T09:44:11;102061.22;;;-0.02;57.17
20228;BME280;12195;55.790;37.572;2023-02-08T09:47:09;102055.88;;;-0.08;57.00
20228;BME280;12195;55.790;37.572;2023-02-08T09:49:30;102050.63;;;-0.12;56.79
20228;BME280;12195;55.790;37.572;2023-02-08T09:52:15;102063.07;;;-0.29;57.20
20228;BME280;12195;55.790;37.572;2023-02-08T09:54:51;102063.11;;;-0.27;57.52
20228;BME280;12195;55.790;37.572;2023-02-08T09:57:26;102058.56;;;-0.36;58.01
20228;BME280;12195;55.790;37.572;2023-02-08T10:00:09;102060.67;;;-0.23;58.09
20228;BME280;12195;55.790;37.572;2023-02-08T10:02:37;102043.64;;;-0.15;57.96
20228;BME280;12195;55.790;37.572;2023-02-08T10:05:20;102033.89;;;0.07;58.14
20228;BME280;12195;55.790;37.572;2023-02-08T10:07:54;102027.76;;;0.39;57.22
20228;BME280;12195;55.790;37.572;2023-02-08T10:10:40;102014.05;;;0.80;56.41
20228;BME280;12195;55.790;37.572;2023-02-08T10:19:43;102004.93;;;1.38;54.77
20228;BME280;12195;55.790;37.572;2023-02-08T10:33:46;101988.88;;;2.05;52.69
20228;BME280;12195;55.790;37.572;2023-02-08T10:36:18;101990.07;;;2.25;52.87
20228;BME280;12195;55.790;37.572;2023-02-08T10:38:48;101980.06;;;2.49;52.23
20228;BME280;12195;55.790;37.572;2023-02-08T10:41:32;101973.07;;;2.43;51.71
20228;BME280;12195;55.790;37.572;2023-02-08T10:47:15;101984.58;;;2.07;51.75
20228;BME280;12195;55.790;37.572;2023-02-08T10:50:03;101979.08;;;1.87;52.12
20228;BME280;12195;55.790;37.572;2023-02-08T10:52:24;101979.63;;;1.70;52.78
20228;BME280;12195;55.790;37.572;2023-02-08T10:54:57;101982.13;;;1.64;52.64
20228;BME280;12195;55.790;37.572;2023-02-08T10:57:34;101989.70;;;1.53;52.71
20228;BME280;12195;55.790;37.572;2023-02-08T11:00:17;101995.63;;;1.48;52.99
20228;BME280;12195;55.790;37.572;2023-02-08T11:02:42;101990.39;;;1.45;52.80
20228;BME280;12195;55.790;37.572;2023-02-08T11:05:33;101987.17;;;1.56;53.30
20228;BME280;12195;55.790;37.572;2023-02-08T11:08:16;101983.41;;;1.41;53.24
20228;BME280;12195;55.790;37.572;2023-02-08T11:11:10;101988.95;;;1.59;53.62
20228;BME280;12195;55.790;37.572;2023-02-08T11:13:45;101983.86;;;1.65;52.74
20228;BME280;12195;55.790;37.572;2023-02-08T11:16:25;101990.17;;;1.79;52.74
20228;BME280;12195;55.790;37.572;2023-02-08T11:18:59;101990.38;;;1.91;52.41
20228;BME280;12195;55.790;37.572;2023-02-08T11:21:33;101973.02;;;1.85;51.87
20228;BME280;12195;55.790;37.572;2023-02-08T11:24:24;101974.19;;;2.04;52.46
20228;BME280;12195;55.790;37.572;2023-02-08T11:26:57;101975.98;;;2.08;52.14
20228;BME280;12195;55.790;37.572;2023-02-08T11:29:31;101971.02;;;2.23;51.58
20228;BME280;12195;55.790;37.572;2023-02-08T11:32:15;101974.58;;;2.28;51.58
20228;BME280;12195;55.790;37.572;2023-02-08T11:34:47;101959.02;;;2.28;50.58
20228;BME280;12195;55.790;37.572;2023-02-08T11:37:22;101970.42;;;2.40;51.52
20228;BME280;12195;55.790;37.572;2023-02-08T11:39:57;101963.16;;;2.17;51.08
20228;BME280;12195;55.790;37.572;2023-02-08T11:42:36;101951.81;;;2.09;51.21
20228;BME280;12195;55.790;37.572;2023-02-08T11:48:01;101947.14;;;1.88;51.93
20228;BME280;12195;55.790;37.572;2023-02-08T11:50:38;101955.59;;;1.77;51.58
20228;BME280;12195;55.790;37.572;2023-02-08T11:53:22;101949.98;;;1.53;52.42
20228;BME280;12195;55.790;37.572;2023-02-08T11:56:21;101953.34;;;1.46;52.61
20228;BME280;12195;55.790;37.572;2023-02-08T11:59:00;101940.76;;;1.21;53.83
20228;BME280;12195;55.790;37.572;2023-02-08T12:01:38;101938.17;;;1.21;54.86
20228;BME280;12195;55.790;37.572;2023-02-08T12:04:12;101931.59;;;1.36;54.34
20228;BME280;12195;55.790;37.572;2023-02-08T12:06:58;101924.87;;;1.46;54.04
20228;BME280;12195;55.790;37.572;2023-02-08T12:09:31;101922.55;;;1.62;53.40
20228;BME280;12195;55.790;37.572;2023-02-08T12:17:55;101910.25;;;1.49;55.17
20228;BME280;12195;55.790;37.572;2023-02-08T12:20:45;101906.22;;;1.66;53.97
20228;BME280;12195;55.790;37.572;2023-02-08T12:23:28;101902.80;;;1.69;53.28
20228;BME280;12195;55.790;37.572;2023-02-08T12:26:11;101896.72;;;1.65;53.67
20228;BME280;12195;55.790;37.572;2023-02-08T12:31:55;101904.48;;;1.65;54.07
20228;BME280;12195;55.790;37.572;2023-02-08T12:40:30;101883.80;;;1.67;53.83
20228;BME280;12195;55.790;37.572;2023-02-08T12:43:25;101890.45;;;1.53;54.00
20228;BME280;12195;55.790;37.572;2023-02-08T12:46:10;101883.42;;;1.44;54.47
20228;BME280;12195;55.790;37.572;2023-02-08T12:48:44;101884.25;;;1.43;54.82
20228;BME280;12195;55.790;37.572;2023-02-08T12:53:56;101878.95;;;1.36;54.76
20228;BME280;12195;55.790;37.572;2023-02-08T12:56:35;101877.09;;;1.29;54.91
20228;BME280;12195;55.790;37.572;2023-02-08T12:59:10;101880.47;;;1.25;55.30
20228;BME280;12195;55.790;37.572;2023-02-08T13:01:45;101867.53;;;1.25;54.98
20228;BME280;12195;55.790;37.572;2023-02-08T13:06:57;101861.35;;;1.17;55.21
20228;BME280;12195;55.790;37.572;2023-02-08T13:09:37;101856.11;;;1.12;54.98
20228;BME280;12195;55.790;37.572;2023-02-08T13:12:13;101857.79;;;1.10;55.61
20228;BME280;12195;55.790;37.572;2023-02-08T13:14:52;101864.66;;;1.08;55.53
20228;BME280;12195;55.790;37.572;2023-02-08T13:17:35;101855.98;;;1.06;55.46
20228;BME280;12195;55.790;37.572;2023-02-08T13:23:01;101852.48;;;1.03;55.57
20228;BME280;12195;55.790;37.572;2023-02-08T13:25:36;101851.70;;;1.07;55.29
20228;BME280;12195;55.790;37.572;2023-02-08T13:28:14;101861.06;;;1.00;55.41
20228;BME280;12195;55.790;37.572;2023-02-08T13:30:54;101856.38;;;0.81;55.70
20228;BME280;12195;55.790;37.572;2023-02-08T13:33:33;101845.12;;;0.78;55.75
20228;BME280;12195;55.790;37.572;2023-02-08T13:36:32;101849.38;;;0.76;55.49
20228;BME280;12195;55.790;37.572;2023-02-08T13:38:42;101833.42;;;0.52;56.15
20228;BME280;12195;55.790;37.572;2023-02-08T13:41:18;101830.48;;;0.35;57.04
20228;BME280;12195;55.790;37.572;2023-02-08T13:44:16;101820.05;;;0.29;57.74
20228;BME280;12195;55.790;37.572;2023-02-08T13:46:49;101829.53;;;0.30;57.52
20228;BME280;12195;55.790;37.572;2023-02-08T13:58:24;101826.77;;;0.23;58.00
20228;BME280;12195;55.790;37.572;2023-02-08T14:03:30;101834.40;;;0.17;58.19
20228;BME280;12195;55.790;37.572;2023-02-08T14:11:46;101829.01;;;0.06;58.44
20228;BME280;12195;55.790;37.572;2023-02-08T14:14:24;101839.98;;;-0.03;59.31
20228;BME280;12195;55.790;37.572;2023-02-08T14:17:18;101828.81;;;-0.03;59.11
20228;BME280;12195;55.790;37.572;2023-02-08T14:19:55;101832.78;;;-0.17;59.43
20228;BME280;12195;55.790;37.572;2023-02-08T14:22:39;101840.76;;;-0.07;59.04
20228;BME280;12195;55.790;37.572;2023-02-08T14:27:57;101836.41;;;-0.09;58.86
20228;BME280;12195;55.790;37.572;2023-02-08T14:30:40;101831.97;;;-0.15;59.32
20228;BME280;12195;55.790;37.572;2023-02-08T14:33:08;101835.89;;;-0.32;59.91
20228;BME280;12195;55.790;37.572;2023-02-08T14:35:51;101837.61;;;-0.32;59.91
20228;BME280;12195;55.790;37.572;2023-02-08T14:38:33;101831.56;;;-0.33;59.87
20228;BME280;12195;55.790;37.572;2023-02-08T14:41:07;101835.67;;;-0.41;60.36
20228;BME280;12195;55.790;37.572;2023-02-08T14:43:40;101841.17;;;-0.27;60.09
20228;BME280;12195;55.790;37.572;2023-02-08T14:49:16;101848.53;;;-0.42;60.35
20228;BME280;12195;55.790;37.572;2023-02-08T14:52:02;101838.34;;;-0.38;60.00
20228;BME280;12195;55.790;37.572;2023-02-08T14:54:37;101837.36;;;-0.43;60.20
20228;BME280;12195;55.790;37.572;2023-02-08T14:57:25;101823.54;;;-0.45;60.23
20228;BME280;12195;55.790;37.572;2023-02-08T15:00:03;101820.96;;;-0.45;60.41
20228;BME280;12195;55.790;37.572;2023-02-08T15:02:36;101827.00;;;-0.44;60.52